Erwinna, Pennsylvania
Current Conditions -  °F | °C
As of 1:54 AM on Saturday 25 Oct 2014 (Local Time) from KDYL Reporting Station
Clear Clear  
Wind Chill: 50°   Ceiling: Unl
Heat Index: 50°   Visibility: 10mi
Dew Point: 33°   Wind: 3mph
Humidity: 52%   Direction: 290°WNW
Pressure: 29.89"   Gusts: NA
Location:  40.5°N, 75.07°W
Report Text: KDYL 250554Z AUTO 29003KT 10SM CLR 10/01 A2989 RMK AO2 SLP120 T01000006 10156 20083 53007
Loading
Personal Weather Stations






























Interactive Weather Map New forecast layout! Learn more

10-Day Weather Forecast

Advertisements
Track Severe Weather on mobile